createdAt,value
2022-12-18T18:18:02.097Z,102786.19
2022-12-18T18:20:30.532Z,102785.53
2022-12-18T18:22:57.117Z,102788.47
2022-12-18T18:25:23.739Z,102801.00
2022-12-18T18:27:50.804Z,102798.63
2022-12-18T18:30:17.437Z,102798.06
2022-12-18T18:32:46.254Z,102792.84
2022-12-18T18:35:44.667Z,102809.69
2022-12-18T18:37:59.586Z,102795.00
2022-12-18T18:40:26.209Z,102792.56
2022-12-18T18:42:55.908Z,102787.47
2022-12-18T18:45:22.476Z,102778.72
2022-12-18T18:47:49.088Z,102779.81
2022-12-18T18:50:15.891Z,102767.97
2022-12-18T18:52:42.558Z,102780.53
2022-12-18T18:55:16.256Z,102782.59
2022-12-18T18:57:52.302Z,102783.56
2022-12-18T19:00:19.165Z,102780.25
2022-12-18T19:02:46.220Z,102780.28
2022-12-18T19:05:12.947Z,102778.63
2022-12-18T19:07:39.599Z,102786.41
2022-12-18T19:10:06.762Z,102781.16
2022-12-18T19:12:53.179Z,102781.22
2022-12-18T19:15:19.974Z,102779.63
2022-12-18T19:17:47.455Z,102782.28
2022-12-18T19:20:15.222Z,102793.75
2022-12-18T19:22:42.046Z,102800.91
2022-12-18T19:25:09.931Z,102802.81
2022-12-18T19:27:38.916Z,102800.28
2022-12-18T19:30:06.040Z,102795.94
2022-12-18T19:32:34.050Z,102806.63
2022-12-18T19:35:00.647Z,102793.34
2022-12-18T19:37:28.152Z,102788.28
2022-12-18T19:39:55.416Z,102791.72
2022-12-18T19:42:28.056Z,102793.53
2022-12-18T19:44:58.604Z,102791.00
2022-12-18T19:47:25.527Z,102802.41
2022-12-18T19:49:52.142Z,102798.09
2022-12-18T19:52:18.803Z,102805.25
2022-12-18T19:54:45.492Z,102801.88
2022-12-18T19:57:12.530Z,102802.84
2022-12-18T19:59:39.167Z,102811.00
2022-12-18T20:02:13.342Z,102806.66
2022-12-18T20:04:40.067Z,102813.75
2022-12-18T20:07:06.799Z,102811.13
2022-12-18T20:09:33.526Z,102815.56
2022-12-18T20:12:00.383Z,102814.88
2022-12-18T20:14:26.987Z,102817.69
2022-12-18T20:16:54.374Z,102825.81
2022-12-18T20:19:22.171Z,102827.94
2022-12-18T20:21:49.239Z,102832.53
2022-12-18T20:24:15.894Z,102843.22
2022-12-18T20:26:42.481Z,102843.34
2022-12-18T20:29:09.365Z,102852.25
2022-12-18T20:31:35.987Z,102850.47
2022-12-18T20:34:04.869Z,102860.09
2022-12-18T20:36:35.246Z,102852.88
2022-12-18T20:39:05.428Z,102853.78
2022-12-18T20:41:37.332Z,102856.44
2022-12-18T20:44:09.571Z,102860.97
2022-12-18T20:46:50.623Z,102852.28
2022-12-18T20:49:17.296Z,102856.78
2022-12-18T20:51:43.967Z,102855.06
2022-12-18T20:54:12.012Z,102843.81
2022-12-18T20:56:38.696Z,102858.88
2022-12-18T20:59:05.218Z,102857.94
2022-12-18T21:01:31.891Z,102858.78
2022-12-18T21:03:59.157Z,102859.84
2022-12-18T21:06:26.489Z,102866.03
2022-12-18T21:08:53.049Z,102868.69
2022-12-18T21:11:37.853Z,102863.53
2022-12-18T21:14:12.069Z,102866.09
2022-12-18T21:16:40.150Z,102874.16
2022-12-18T21:19:07.072Z,102880.34
2022-12-18T21:21:36.542Z,102880.50
2022-12-18T21:24:05.992Z,102887.06
2022-12-18T21:26:32.881Z,102887.66
2022-12-18T21:29:01.976Z,102882.66
2022-12-18T21:31:34.225Z,102879.19
2022-12-18T21:34:02.477Z,102879.19
2022-12-18T21:36:30.194Z,102883.75
2022-12-18T21:38:58.010Z,102872.28
2022-12-18T21:41:43.812Z,102875.00
2022-12-18T21:44:15.714Z,102879.47
2022-12-18T21:46:51.500Z,102874.06
2022-12-18T21:49:23.127Z,102881.97
2022-12-18T21:51:51.713Z,102872.19
2022-12-18T21:54:19.602Z,102874.13
2022-12-18T21:56:56.132Z,102878.47
2022-12-18T21:59:34.500Z,102876.91
2022-12-18T22:02:09.900Z,102870.81
2022-12-18T22:04:36.797Z,102866.56
2022-12-18T22:07:05.158Z,102880.59
2022-12-18T22:09:32.207Z,102876.22
2022-12-18T22:11:59.200Z,102864.75
2022-12-18T22:14:25.982Z,102864.94
2022-12-18T22:16:52.882Z,102849.91
2022-12-18T22:19:20.340Z,102856.16
2022-12-18T22:21:48.710Z,102864.88
2022-12-18T22:24:18.023Z,102860.38
2022-12-18T22:26:46.556Z,102856.00
2022-12-18T22:29:37.362Z,102856.00
2022-12-18T22:32:05.321Z,102870.16
2022-12-18T22:34:36.611Z,102870.97
2022-12-18T22:37:04.045Z,102877.19
2022-12-18T22:39:31.395Z,102881.56
2022-12-18T22:41:58.638Z,102883.38
2022-12-18T22:44:25.571Z,102873.72
2022-12-18T22:47:05.746Z,102865.00
2022-12-18T22:49:35.377Z,102859.81
2022-12-18T22:52:03.719Z,102873.91
2022-12-18T22:54:30.343Z,102860.00
2022-12-18T22:56:57.125Z,102854.94
2022-12-18T22:59:24.119Z,102866.38
2022-12-18T23:01:58.647Z,102870.84
2022-12-18T23:04:31.995Z,102862.06
2022-12-18T23:07:05.242Z,102867.22
2022-12-18T23:09:32.233Z,102860.09
2022-12-18T23:11:59.052Z,102857.41
2022-12-18T23:14:26.143Z,102854.81
2022-12-18T23:16:53.148Z,102863.59
2022-12-18T23:19:20.137Z,102855.66
2022-12-18T23:21:47.675Z,102855.59
2022-12-18T23:24:15.052Z,102856.44
2022-12-18T23:26:42.873Z,102859.78
2022-12-18T23:29:09.691Z,102851.00
2022-12-18T23:31:38.629Z,102852.56
2022-12-18T23:34:06.250Z,102853.25
2022-12-18T23:36:38.417Z,102861.91
2022-12-18T23:39:17.197Z,102852.91
2022-12-18T23:41:56.455Z,102857.97
2022-12-18T23:44:23.103Z,102848.19
2022-12-18T23:46:49.802Z,102855.16
2022-12-18T23:49:16.498Z,102858.53
2022-12-18T23:51:43.492Z,102864.66
2022-12-18T23:54:10.772Z,102869.16
2022-12-18T23:56:37.693Z,102861.25
2022-12-18T23:59:04.669Z,102855.03
